Terminal Aerodrome Forecast
Issued by NWS

Current Version | Previous Version | Text Only | Print | Product List | Glossary Off
Versions: 1 2 3 4 5 6 7 8 9 10 11 12 13 14 15 16 17 18 19 20 21 22 23 24 25 26 27 28 29 30 31

000
FTUS41 KILN 282300
TAFLUK
TAF
KLUK 282335Z 2900/2924 35004KT P6SM OVC028
     FM290600 02003KT P6SM SCT030 SCT250
     FM291400 03007KT P6SM SCT030 BKN250
     FM292300 03004KT P6SM FEW030=

USA.gov is the U.S. government's official web portal to all federal, state and local government web resources and services.